sensor_id;sensor_type;location;lat;lon;timestamp;P1;durP1;ratioP1;P2;durP2;ratioP2
19891;SDS011;10108;50.142;8.724;2023-04-21T00:00:51;78.28;;;46.97;;
19891;SDS011;10108;50.142;8.724;2023-04-21T00:03:18;224.82;;;51.63;;
19891;SDS011;10108;50.142;8.724;2023-04-21T00:05:46;133.20;;;48.25;;
19891;SDS011;10108;50.142;8.724;2023-04-21T00:08:13;76.05;;;47.20;;
19891;SDS011;10108;50.142;8.724;2023-04-21T00:10:40;140.80;;;48.25;;
19891;SDS011;10108;50.142;8.724;2023-04-21T00:13:06;155.88;;;49.40;;
19891;SDS011;10108;50.142;8.724;2023-04-21T00:15:33;206.68;;;49.85;;
19891;SDS011;10108;50.142;8.724;2023-04-21T00:17:59;183.13;;;50.67;;
19891;SDS011;10108;50.142;8.724;2023-04-21T00:20:26;440.05;;;57.22;;
19891;SDS011;10108;50.142;8.724;2023-04-21T00:22:53;327.65;;;54.05;;
19891;SDS011;10108;50.142;8.724;2023-04-21T00:25:20;150.45;;;50.28;;
19891;SDS011;10108;50.142;8.724;2023-04-21T00:27:46;208.00;;;52.03;;
19891;SDS011;10108;50.142;8.724;2023-04-21T00:30:13;162.73;;;51.17;;
19891;SDS011;10108;50.142;8.724;2023-04-21T00:32:39;109.20;;;46.85;;
19891;SDS011;10108;50.142;8.724;2023-04-21T00:35:05;106.97;;;46.80;;
19891;SDS011;10108;50.142;8.724;2023-04-21T00:37:32;154.80;;;49.72;;
19891;SDS011;10108;50.142;8.724;2023-04-21T00:39:58;138.15;;;52.88;;
19891;SDS011;10108;50.142;8.724;2023-04-21T00:42:25;105.05;;;46.58;;
19891;SDS011;10108;50.142;8.724;2023-04-21T00:44:51;96.18;;;43.50;;
19891;SDS011;10108;50.142;8.724;2023-04-21T00:47:17;84.75;;;44.45;;
19891;SDS011;10108;50.142;8.724;2023-04-21T00:49:44;82.28;;;44.08;;
19891;SDS011;10108;50.142;8.724;2023-04-21T00:52:12;76.20;;;44.80;;
19891;SDS011;10108;50.142;8.724;2023-04-21T00:54:41;148.63;;;46.53;;
19891;SDS011;10108;50.142;8.724;2023-04-21T00:57:07;116.90;;;45.45;;
19891;SDS011;10108;50.142;8.724;2023-04-21T00:59:35;100.03;;;42.90;;
19891;SDS011;10108;50.142;8.724;2023-04-21T01:02:01;177.10;;;45.58;;
19891;SDS011;10108;50.142;8.724;2023-04-21T01:04:28;202.77;;;45.83;;
19891;SDS011;10108;50.142;8.724;2023-04-21T01:07:00;263.85;;;47.50;;
19891;SDS011;10108;50.142;8.724;2023-04-21T01:09:26;110.07;;;45.03;;
19891;SDS011;10108;50.142;8.724;2023-04-21T01:11:59;127.25;;;44.55;;
19891;SDS011;10108;50.142;8.724;2023-04-21T01:14:29;66.43;;;42.22;;
19891;SDS011;10108;50.142;8.724;2023-04-21T01:16:55;175.57;;;45.17;;
19891;SDS011;10108;50.142;8.724;2023-04-21T01:19:22;129.40;;;43.10;;
19891;SDS011;10108;50.142;8.724;2023-04-21T01:21:51;306.20;;;50.05;;
19891;SDS011;10108;50.142;8.724;2023-04-21T01:24:18;332.10;;;50.05;;
19891;SDS011;10108;50.142;8.724;2023-04-21T01:26:44;323.35;;;49.63;;
19891;SDS011;10108;50.142;8.724;2023-04-21T01:29:14;113.03;;;41.97;;
19891;SDS011;10108;50.142;8.724;2023-04-21T01:31:41;71.70;;;45.05;;
19891;SDS011;10108;50.142;8.724;2023-04-21T01:34:09;80.05;;;45.10;;
19891;SDS011;10108;50.142;8.724;2023-04-21T01:36:36;83.80;;;43.50;;
19891;SDS011;10108;50.142;8.724;2023-04-21T01:39:02;66.25;;;44.15;;
19891;SDS011;10108;50.142;8.724;2023-04-21T01:41:29;216.95;;;46.92;;
19891;SDS011;10108;50.142;8.724;2023-04-21T01:43:55;99.05;;;42.72;;
19891;SDS011;10108;50.142;8.724;2023-04-21T01:46:23;87.07;;;42.22;;
19891;SDS011;10108;50.142;8.724;2023-04-21T01:48:49;64.18;;;41.28;;
19891;SDS011;10108;50.142;8.724;2023-04-21T01:51:15;59.35;;;41.75;;
19891;SDS011;10108;50.142;8.724;2023-04-21T01:53:43;66.35;;;42.83;;
19891;SDS011;10108;50.142;8.724;2023-04-21T01:56:12;463.75;;;55.28;;
19891;SDS011;10108;50.142;8.724;2023-04-21T01:58:39;133.77;;;42.50;;
19891;SDS011;10108;50.142;8.724;2023-04-21T02:01:05;84.82;;;42.65;;
19891;SDS011;10108;50.142;8.724;2023-04-21T02:03:31;87.80;;;43.72;;
19891;SDS011;10108;50.142;8.724;2023-04-21T02:05:57;74.38;;;42.05;;
19891;SDS011;10108;50.142;8.724;2023-04-21T02:08:23;64.60;;;41.95;;
19891;SDS011;10108;50.142;8.724;2023-04-21T02:10:49;158.52;;;45.13;;
19891;SDS011;10108;50.142;8.724;2023-04-21T02:13:16;71.93;;;41.88;;
19891;SDS011;10108;50.142;8.724;2023-04-21T02:15:42;92.60;;;44.75;;
19891;SDS011;10108;50.142;8.724;2023-04-21T02:18:08;104.10;;;44.50;;
19891;SDS011;10108;50.142;8.724;2023-04-21T02:20:34;78.18;;;46.38;;
19891;SDS011;10108;50.142;8.724;2023-04-21T02:23:01;73.32;;;44.85;;
19891;SDS011;10108;50.142;8.724;2023-04-21T02:25:28;94.93;;;46.53;;
19891;SDS011;10108;50.142;8.724;2023-04-21T02:27:55;99.07;;;43.17;;
19891;SDS011;10108;50.142;8.724;2023-04-21T02:30:21;232.98;;;49.63;;
19891;SDS011;10108;50.142;8.724;2023-04-21T02:32:47;75.60;;;45.80;;
19891;SDS011;10108;50.142;8.724;2023-04-21T02:35:13;95.57;;;44.28;;
19891;SDS011;10108;50.142;8.724;2023-04-21T02:37:40;81.45;;;45.35;;
19891;SDS011;10108;50.142;8.724;2023-04-21T02:40:06;103.85;;;44.22;;
19891;SDS011;10108;50.142;8.724;2023-04-21T02:42:33;344.88;;;53.28;;
19891;SDS011;10108;50.142;8.724;2023-04-21T02:44:59;91.43;;;45.00;;
19891;SDS011;10108;50.142;8.724;2023-04-21T02:47:26;105.10;;;44.03;;
19891;SDS011;10108;50.142;8.724;2023-04-21T02:49:52;201.25;;;46.42;;
19891;SDS011;10108;50.142;8.724;2023-04-21T02:52:18;71.63;;;41.90;;
19891;SDS011;10108;50.142;8.724;2023-04-21T02:54:44;77.22;;;44.63;;
19891;SDS011;10108;50.142;8.724;2023-04-21T02:57:11;116.43;;;44.58;;
19891;SDS011;10108;50.142;8.724;2023-04-21T02:59:38;193.85;;;44.30;;
19891;SDS011;10108;50.142;8.724;2023-04-21T03:02:04;81.65;;;40.58;;
19891;SDS011;10108;50.142;8.724;2023-04-21T03:04:30;94.95;;;42.95;;
19891;SDS011;10108;50.142;8.724;2023-04-21T03:06:58;83.45;;;42.03;;
19891;SDS011;10108;50.142;8.724;2023-04-21T03:09:24;65.30;;;41.03;;
19891;SDS011;10108;50.142;8.724;2023-04-21T03:11:52;100.47;;;40.15;;
19891;SDS011;10108;50.142;8.724;2023-04-21T03:14:18;70.05;;;40.40;;
19891;SDS011;10108;50.142;8.724;2023-04-21T03:16:44;66.90;;;40.67;;
19891;SDS011;10108;50.142;8.724;2023-04-21T03:19:11;61.22;;;39.47;;
19891;SDS011;10108;50.142;8.724;2023-04-21T03:21:37;101.65;;;40.88;;
19891;SDS011;10108;50.142;8.724;2023-04-21T03:24:04;218.95;;;43.80;;
19891;SDS011;10108;50.142;8.724;2023-04-21T03:26:31;57.33;;;38.03;;
19891;SDS011;10108;50.142;8.724;2023-04-21T03:28:58;70.25;;;38.35;;
19891;SDS011;10108;50.142;8.724;2023-04-21T03:31:24;61.78;;;39.10;;
19891;SDS011;10108;50.142;8.724;2023-04-21T03:33:50;58.67;;;38.90;;
19891;SDS011;10108;50.142;8.724;2023-04-21T03:36:16;68.53;;;38.38;;
19891;SDS011;10108;50.142;8.724;2023-04-21T03:38:42;58.08;;;39.20;;
19891;SDS011;10108;50.142;8.724;2023-04-21T03:41:08;63.05;;;38.15;;
19891;SDS011;10108;50.142;8.724;2023-04-21T03:43:35;54.53;;;38.03;;
19891;SDS011;10108;50.142;8.724;2023-04-21T03:46:01;60.40;;;37.55;;
19891;SDS011;10108;50.142;8.724;2023-04-21T03:48:27;52.90;;;36.42;;
19891;SDS011;10108;50.142;8.724;2023-04-21T03:50:54;58.58;;;37.83;;
19891;SDS011;10108;50.142;8.724;2023-04-21T03:53:20;53.10;;;36.55;;
19891;SDS011;10108;50.142;8.724;2023-04-21T03:55:48;51.33;;;35.53;;
19891;SDS011;10108;50.142;8.724;2023-04-21T03:58:15;53.05;;;36.08;;
19891;SDS011;10108;50.142;8.724;2023-04-21T04:00:41;55.00;;;36.25;;
19891;SDS011;10108;50.142;8.724;2023-04-21T04:03:08;49.95;;;35.40;;
19891;SDS011;10108;50.142;8.724;2023-04-21T04:05:34;49.53;;;35.33;;
19891;SDS011;10108;50.142;8.724;2023-04-21T04:08:01;62.10;;;36.47;;
19891;SDS011;10108;50.142;8.724;2023-04-21T04:10:27;56.38;;;37.13;;
19891;SDS011;10108;50.142;8.724;2023-04-21T04:12:53;52.47;;;36.22;;
19891;SDS011;10108;50.142;8.724;2023-04-21T04:15:19;59.42;;;36.97;;
19891;SDS011;10108;50.142;8.724;2023-04-21T04:17:46;65.53;;;38.17;;
19891;SDS011;10108;50.142;8.724;2023-04-21T04:20:12;65.25;;;37.55;;
19891;SDS011;10108;50.142;8.724;2023-04-21T04:22:38;59.90;;;37.10;;
19891;SDS011;10108;50.142;8.724;2023-04-21T04:25:04;72.90;;;38.67;;
19891;SDS011;10108;50.142;8.724;2023-04-21T04:27:30;61.35;;;36.65;;
19891;SDS011;10108;50.142;8.724;2023-04-21T04:29:56;59.28;;;36.92;;
19891;SDS011;10108;50.142;8.724;2023-04-21T04:32:23;58.72;;;36.22;;
19891;SDS011;10108;50.142;8.724;2023-04-21T04:34:53;52.30;;;36.15;;
19891;SDS011;10108;50.142;8.724;2023-04-21T04:37:20;53.70;;;35.35;;
19891;SDS011;10108;50.142;8.724;2023-04-21T04:39:47;53.97;;;36.05;;
19891;SDS011;10108;50.142;8.724;2023-04-21T04:42:14;52.25;;;35.42;;
19891;SDS011;10108;50.142;8.724;2023-04-21T04:44:41;48.28;;;34.38;;
19891;SDS011;10108;50.142;8.724;2023-04-21T04:47:07;50.67;;;35.22;;
19891;SDS011;10108;50.142;8.724;2023-04-21T04:49:33;59.05;;;35.80;;
19891;SDS011;10108;50.142;8.724;2023-04-21T04:51:59;57.38;;;37.10;;
19891;SDS011;10108;50.142;8.724;2023-04-21T04:54:26;53.60;;;36.65;;
19891;SDS011;10108;50.142;8.724;2023-04-21T04:56:53;53.88;;;36.50;;
19891;SDS011;10108;50.142;8.724;2023-04-21T04:59:20;58.40;;;37.53;;
19891;SDS011;10108;50.142;8.724;2023-04-21T05:01:46;63.05;;;38.80;;
19891;SDS011;10108;50.142;8.724;2023-04-21T05:04:12;61.67;;;38.25;;
19891;SDS011;10108;50.142;8.724;2023-04-21T05:06:41;57.85;;;37.20;;
19891;SDS011;10108;50.142;8.724;2023-04-21T05:09:07;56.35;;;37.20;;
19891;SDS011;10108;50.142;8.724;2023-04-21T05:11:34;59.35;;;36.70;;
19891;SDS011;10108;50.142;8.724;2023-04-21T05:14:00;59.58;;;37.53;;
19891;SDS011;10108;50.142;8.724;2023-04-21T05:16:27;54.28;;;35.80;;
19891;SDS011;10108;50.142;8.724;2023-04-21T05:18:53;56.05;;;37.33;;
19891;SDS011;10108;50.142;8.724;2023-04-21T05:21:23;55.83;;;36.85;;
19891;SDS011;10108;50.142;8.724;2023-04-21T05:23:53;69.13;;;39.90;;
19891;SDS011;10108;50.142;8.724;2023-04-21T05:26:20;62.38;;;38.80;;
19891;SDS011;10108;50.142;8.724;2023-04-21T05:28:47;61.13;;;38.28;;
19891;SDS011;10108;50.142;8.724;2023-04-21T05:31:14;56.97;;;36.92;;
19891;SDS011;10108;50.142;8.724;2023-04-21T05:33:40;56.35;;;37.72;;
19891;SDS011;10108;50.142;8.724;2023-04-21T05:36:06;59.40;;;37.63;;
19891;SDS011;10108;50.142;8.724;2023-04-21T05:38:35;57.05;;;37.30;;
19891;SDS011;10108;50.142;8.724;2023-04-21T05:41:03;60.88;;;39.88;;
19891;SDS011;10108;50.142;8.724;2023-04-21T05:43:29;59.22;;;37.58;;
19891;SDS011;10108;50.142;8.724;2023-04-21T05:45:59;55.08;;;36.20;;
19891;SDS011;10108;50.142;8.724;2023-04-21T05:48:26;55.97;;;36.15;;
19891;SDS011;10108;50.142;8.724;2023-04-21T05:50:53;58.25;;;37.85;;
19891;SDS011;10108;50.142;8.724;2023-04-21T05:53:20;57.83;;;37.20;;
19891;SDS011;10108;50.142;8.724;2023-04-21T05:55:48;56.08;;;36.35;;
19891;SDS011;10108;50.142;8.724;2023-04-21T05:58:14;57.85;;;36.78;;
19891;SDS011;10108;50.142;8.724;2023-04-21T06:00:40;63.35;;;37.72;;
19891;SDS011;10108;50.142;8.724;2023-04-21T06:03:07;56.83;;;36.55;;
19891;SDS011;10108;50.142;8.724;2023-04-21T06:05:33;57.67;;;36.35;;
19891;SDS011;10108;50.142;8.724;2023-04-21T06:07:59;55.60;;;36.50;;
19891;SDS011;10108;50.142;8.724;2023-04-21T06:10:25;58.45;;;37.13;;
19891;SDS011;10108;50.142;8.724;2023-04-21T06:12:51;62.78;;;36.97;;
19891;SDS011;10108;50.142;8.724;2023-04-21T06:15:18;57.53;;;37.13;;
19891;SDS011;10108;50.142;8.724;2023-04-21T06:17:44;57.05;;;37.33;;
19891;SDS011;10108;50.142;8.724;2023-04-21T06:20:10;57.10;;;36.13;;
19891;SDS011;10108;50.142;8.724;2023-04-21T06:22:37;55.58;;;36.78;;
19891;SDS011;10108;50.142;8.724;2023-04-21T06:25:03;56.08;;;36.25;;
19891;SDS011;10108;50.142;8.724;2023-04-21T06:27:30;59.33;;;37.38;;
19891;SDS011;10108;50.142;8.724;2023-04-21T06:29:56;62.42;;;36.25;;
19891;SDS011;10108;50.142;8.724;2023-04-21T06:32:22;57.22;;;35.72;;
19891;SDS011;10108;50.142;8.724;2023-04-21T06:34:48;61.28;;;36.67;;
19891;SDS011;10108;50.142;8.724;2023-04-21T06:37:15;64.07;;;37.53;;
19891;SDS011;10108;50.142;8.724;2023-04-21T06:39:41;60.13;;;37.45;;
19891;SDS011;10108;50.142;8.724;2023-04-21T06:42:07;60.17;;;36.22;;
19891;SDS011;10108;50.142;8.724;2023-04-21T06:44:41;57.75;;;36.28;;
19891;SDS011;10108;50.142;8.724;2023-04-21T06:47:07;56.10;;;36.45;;
19891;SDS011;10108;50.142;8.724;2023-04-21T06:49:33;57.65;;;37.55;;
19891;SDS011;10108;50.142;8.724;2023-04-21T06:52:02;54.50;;;35.33;;
19891;SDS011;10108;50.142;8.724;2023-04-21T06:54:28;55.20;;;36.05;;
19891;SDS011;10108;50.142;8.724;2023-04-21T06:56:54;59.17;;;37.03;;
19891;SDS011;10108;50.142;8.724;2023-04-21T06:59:21;57.58;;;36.38;;
19891;SDS011;10108;50.142;8.724;2023-04-21T07:01:48;57.28;;;35.80;;
19891;SDS011;10108;50.142;8.724;2023-04-21T07:04:17;55.85;;;35.17;;
19891;SDS011;10108;50.142;8.724;2023-04-21T07:06:44;52.08;;;34.50;;
19891;SDS011;10108;50.142;8.724;2023-04-21T07:09:10;52.55;;;34.28;;
19891;SDS011;10108;50.142;8.724;2023-04-21T07:11:36;52.45;;;34.75;;
19891;SDS011;10108;50.142;8.724;2023-04-21T07:14:02;57.42;;;35.92;;
19891;SDS011;10108;50.142;8.724;2023-04-21T07:16:28;51.58;;;33.75;;
19891;SDS011;10108;50.142;8.724;2023-04-21T07:18:55;50.90;;;33.45;;
19891;SDS011;10108;50.142;8.724;2023-04-21T07:21:21;49.45;;;33.00;;
19891;SDS011;10108;50.142;8.724;2023-04-21T07:23:47;54.40;;;32.67;;
19891;SDS011;10108;50.142;8.724;2023-04-21T07:26:13;51.08;;;32.78;;
19891;SDS011;10108;50.142;8.724;2023-04-21T07:28:39;48.58;;;32.88;;
19891;SDS011;10108;50.142;8.724;2023-04-21T07:31:06;52.75;;;32.78;;
19891;SDS011;10108;50.142;8.724;2023-04-21T07:33:32;49.53;;;31.33;;
19891;SDS011;10108;50.142;8.724;2023-04-21T07:35:58;46.83;;;30.95;;
19891;SDS011;10108;50.142;8.724;2023-04-21T07:38:25;47.60;;;31.88;;
19891;SDS011;10108;50.142;8.724;2023-04-21T07:40:51;47.08;;;31.40;;
19891;SDS011;10108;50.142;8.724;2023-04-21T07:43:17;48.10;;;32.33;;
19891;SDS011;10108;50.142;8.724;2023-04-21T07:45:44;45.75;;;30.85;;
19891;SDS011;10108;50.142;8.724;2023-04-21T07:48:10;45.17;;;30.30;;
19891;SDS011;10108;50.142;8.724;2023-04-21T07:50:37;47.63;;;32.15;;
19891;SDS011;10108;50.142;8.724;2023-04-21T07:53:03;46.60;;;30.27;;
19891;SDS011;10108;50.142;8.724;2023-04-21T07:55:29;45.13;;;30.10;;
19891;SDS011;10108;50.142;8.724;2023-04-21T07:57:55;46.15;;;29.48;;
19891;SDS011;10108;50.142;8.724;2023-04-21T08:00:22;50.55;;;31.17;;
19891;SDS011;10108;50.142;8.724;2023-04-21T08:02:48;46.63;;;30.58;;
19891;SDS011;10108;50.142;8.724;2023-04-21T08:05:14;50.05;;;30.58;;
19891;SDS011;10108;50.142;8.724;2023-04-21T08:07:40;50.60;;;31.83;;
19891;SDS011;10108;50.142;8.724;2023-04-21T08:10:06;49.45;;;31.05;;
19891;SDS011;10108;50.142;8.724;2023-04-21T08:12:33;47.63;;;30.55;;
19891;SDS011;10108;50.142;8.724;2023-04-21T08:14:59;50.35;;;31.00;;
19891;SDS011;10108;50.142;8.724;2023-04-21T08:17:30;45.42;;;29.77;;
19891;SDS011;10108;50.142;8.724;2023-04-21T08:19:56;47.28;;;30.85;;
19891;SDS011;10108;50.142;8.724;2023-04-21T08:22:22;48.55;;;30.25;;
19891;SDS011;10108;50.142;8.724;2023-04-21T08:24:48;43.83;;;28.83;;
19891;SDS011;10108;50.142;8.724;2023-04-21T08:27:14;45.15;;;29.83;;
19891;SDS011;10108;50.142;8.724;2023-04-21T08:29:41;46.78;;;29.88;;
19891;SDS011;10108;50.142;8.724;2023-04-21T08:32:07;43.25;;;28.33;;
19891;SDS011;10108;50.142;8.724;2023-04-21T08:34:33;46.95;;;31.00;;
19891;SDS011;10108;50.142;8.724;2023-04-21T08:36:59;42.65;;;28.23;;
19891;SDS011;10108;50.142;8.724;2023-04-21T08:39:25;41.97;;;28.15;;
19891;SDS011;10108;50.142;8.724;2023-04-21T08:41:52;43.60;;;28.88;;
19891;SDS011;10108;50.142;8.724;2023-04-21T08:44:19;44.85;;;27.92;;
19891;SDS011;10108;50.142;8.724;2023-04-21T08:46:47;46.30;;;29.85;;
19891;SDS011;10108;50.142;8.724;2023-04-21T08:49:15;45.10;;;29.80;;
19891;SDS011;10108;50.142;8.724;2023-04-21T08:51:45;42.33;;;28.65;;
19891;SDS011;10108;50.142;8.724;2023-04-21T08:54:11;45.42;;;28.58;;
19891;SDS011;10108;50.142;8.724;2023-04-21T08:56:38;44.88;;;29.30;;
19891;SDS011;10108;50.142;8.724;2023-04-21T08:59:05;42.00;;;28.88;;
19891;SDS011;10108;50.142;8.724;2023-04-21T09:01:31;40.70;;;27.70;;
19891;SDS011;10108;50.142;8.724;2023-04-21T09:04:16;46.00;;;28.73;;
19891;SDS011;10108;50.142;8.724;2023-04-21T09:06:43;41.75;;;29.15;;
19891;SDS011;10108;50.142;8.724;2023-04-21T09:09:10;41.35;;;28.95;;
19891;SDS011;10108;50.142;8.724;2023-04-21T09:11:37;43.67;;;28.83;;
19891;SDS011;10108;50.142;8.724;2023-04-21T09:14:03;40.70;;;27.63;;
19891;SDS011;10108;50.142;8.724;2023-04-21T09:16:30;43.28;;;27.73;;
19891;SDS011;10108;50.142;8.724;2023-04-21T09:19:00;41.78;;;28.27;;
19891;SDS011;10108;50.142;8.724;2023-04-21T09:21:26;43.45;;;27.92;;
19891;SDS011;10108;50.142;8.724;2023-04-21T09:23:53;41.47;;;28.42;;
19891;SDS011;10108;50.142;8.724;2023-04-21T09:26:22;41.47;;;27.70;;
19891;SDS011;10108;50.142;8.724;2023-04-21T09:28:49;43.55;;;27.58;;
19891;SDS011;10108;50.142;8.724;2023-04-21T09:31:18;40.72;;;27.85;;
19891;SDS011;10108;50.142;8.724;2023-04-21T09:33:46;43.10;;;28.80;;
19891;SDS011;10108;50.142;8.724;2023-04-21T09:36:26;42.83;;;27.48;;
19891;SDS011;10108;50.142;8.724;2023-04-21T09:38:57;40.55;;;26.92;;
19891;SDS011;10108;50.142;8.724;2023-04-21T09:41:29;45.42;;;27.98;;
19891;SDS011;10108;50.142;8.724;2023-04-21T09:43:56;37.83;;;25.50;;
19891;SDS011;10108;50.142;8.724;2023-04-21T09:46:25;45.75;;;27.45;;
19891;SDS011;10108;50.142;8.724;2023-04-21T09:48:54;41.30;;;26.42;;
19891;SDS011;10108;50.142;8.724;2023-04-21T09:51:21;43.92;;;28.63;;
19891;SDS011;10108;50.142;8.724;2023-04-21T09:53:50;40.58;;;26.05;;
19891;SDS011;10108;50.142;8.724;2023-04-21T09:56:23;40.60;;;26.58;;
19891;SDS011;10108;50.142;8.724;2023-04-21T09:58:53;40.72;;;26.35;;
19891;SDS011;10108;50.142;8.724;2023-04-21T10:01:26;37.10;;;25.15;;
19891;SDS011;10108;50.142;8.724;2023-04-21T10:03:54;38.78;;;25.58;;
19891;SDS011;10108;50.142;8.724;2023-04-21T10:06:21;36.17;;;25.30;;
19891;SDS011;10108;50.142;8.724;2023-04-21T10:08:48;35.65;;;24.60;;
19891;SDS011;10108;50.142;8.724;2023-04-21T10:11:15;37.83;;;25.50;;
19891;SDS011;10108;50.142;8.724;2023-04-21T10:13:43;36.08;;;24.88;;
19891;SDS011;10108;50.142;8.724;2023-04-21T10:16:11;35.85;;;24.38;;
19891;SDS011;10108;50.142;8.724;2023-04-21T10:18:38;35.15;;;23.85;;
19891;SDS011;10108;50.142;8.724;2023-04-21T10:21:09;36.20;;;24.45;;
19891;SDS011;10108;50.142;8.724;2023-04-21T10:23:37;37.30;;;24.58;;
19891;SDS011;10108;50.142;8.724;2023-04-21T10:28:52;35.50;;;23.42;;
19891;SDS011;10108;50.142;8.724;2023-04-21T10:34:14;34.20;;;22.17;;
19891;SDS011;10108;50.142;8.724;2023-04-21T10:39:10;35.35;;;21.50;;
19891;SDS011;10108;50.142;8.724;2023-04-21T10:41:49;37.65;;;22.95;;
19891;SDS011;10108;50.142;8.724;2023-04-21T10:44:16;34.30;;;22.33;;
19891;SDS011;10108;50.142;8.724;2023-04-21T10:46:52;34.97;;;22.40;;
19891;SDS011;10108;50.142;8.724;2023-04-21T10:57:07;31.60;;;21.67;;
19891;SDS011;10108;50.142;8.724;2023-04-21T10:59:36;34.05;;;21.50;;
19891;SDS011;10108;50.142;8.724;2023-04-21T11:02:06;32.10;;;22.67;;
19891;SDS011;10108;50.142;8.724;2023-04-21T11:04:32;38.03;;;23.35;;
19891;SDS011;10108;50.142;8.724;2023-04-21T11:09:35;34.42;;;23.70;;
19891;SDS011;10108;50.142;8.724;2023-04-21T11:12:03;31.20;;;22.13;;
19891;SDS011;10108;50.142;8.724;2023-04-21T11:14:34;37.30;;;23.00;;
19891;SDS011;10108;50.142;8.724;2023-04-21T11:17:03;32.08;;;21.92;;
19891;SDS011;10108;50.142;8.724;2023-04-21T11:19:33;35.55;;;20.58;;
19891;SDS011;10108;50.142;8.724;2023-04-21T11:21:59;32.17;;;21.83;;
19891;SDS011;10108;50.142;8.724;2023-04-21T11:24:25;33.85;;;21.98;;
19891;SDS011;10108;50.142;8.724;2023-04-21T11:26:51;31.33;;;21.00;;
19891;SDS011;10108;50.142;8.724;2023-04-21T11:29:18;32.47;;;21.35;;
19891;SDS011;10108;50.142;8.724;2023-04-21T11:31:44;29.73;;;20.92;;
19891;SDS011;10108;50.142;8.724;2023-04-21T11:34:13;29.25;;;21.05;;
19891;SDS011;10108;50.142;8.724;2023-04-21T11:36:43;28.42;;;20.15;;
19891;SDS011;10108;50.142;8.724;2023-04-21T11:39:11;28.63;;;20.20;;
19891;SDS011;10108;50.142;8.724;2023-04-21T11:41:40;28.08;;;20.05;;
19891;SDS011;10108;50.142;8.724;2023-04-21T11:44:10;34.13;;;20.80;;
19891;SDS011;10108;50.142;8.724;2023-04-21T11:46:44;30.17;;;21.25;;
19891;SDS011;10108;50.142;8.724;2023-04-21T11:49:11;27.50;;;19.52;;
19891;SDS011;10108;50.142;8.724;2023-04-21T11:51:40;27.85;;;19.60;;
19891;SDS011;10108;50.142;8.724;2023-04-21T11:54:10;28.98;;;20.02;;
19891;SDS011;10108;50.142;8.724;2023-04-21T11:56:38;30.65;;;20.13;;
19891;SDS011;10108;50.142;8.724;2023-04-21T11:59:09;28.67;;;19.98;;
19891;SDS011;10108;50.142;8.724;2023-04-21T12:01:46;29.30;;;20.08;;
19891;SDS011;10108;50.142;8.724;2023-04-21T12:04:18;28.67;;;19.27;;
19891;SDS011;10108;50.142;8.724;2023-04-21T12:07:00;27.67;;;19.45;;
19891;SDS011;10108;50.142;8.724;2023-04-21T12:09:27;25.92;;;18.63;;
19891;SDS011;10108;50.142;8.724;2023-04-21T12:11:55;25.10;;;18.15;;
19891;SDS011;10108;50.142;8.724;2023-04-21T12:14:24;24.33;;;17.55;;
19891;SDS011;10108;50.142;8.724;2023-04-21T12:16:53;25.63;;;18.30;;
19891;SDS011;10108;50.142;8.724;2023-04-21T12:19:22;28.35;;;19.20;;
19891;SDS011;10108;50.142;8.724;2023-04-21T12:21:54;29.80;;;19.40;;
19891;SDS011;10108;50.142;8.724;2023-04-21T12:24:23;28.33;;;18.92;;
19891;SDS011;10108;50.142;8.724;2023-04-21T12:26:49;27.98;;;18.42;;
19891;SDS011;10108;50.142;8.724;2023-04-21T12:29:16;24.33;;;18.40;;
19891;SDS011;10108;50.142;8.724;2023-04-21T12:31:42;28.33;;;18.75;;
19891;SDS011;10108;50.142;8.724;2023-04-21T12:34:08;24.55;;;17.75;;
19891;SDS011;10108;50.142;8.724;2023-04-21T12:36:34;25.70;;;18.38;;
19891;SDS011;10108;50.142;8.724;2023-04-21T12:39:00;27.27;;;18.30;;
19891;SDS011;10108;50.142;8.724;2023-04-21T12:41:27;25.75;;;17.27;;
19891;SDS011;10108;50.142;8.724;2023-04-21T12:43:53;26.10;;;16.88;;
19891;SDS011;10108;50.142;8.724;2023-04-21T12:46:19;22.67;;;15.93;;
19891;SDS011;10108;50.142;8.724;2023-04-21T12:48:45;24.33;;;16.05;;
19891;SDS011;10108;50.142;8.724;2023-04-21T12:51:13;24.42;;;16.65;;
19891;SDS011;10108;50.142;8.724;2023-04-21T12:53:39;23.42;;;17.15;;
19891;SDS011;10108;50.142;8.724;2023-04-21T12:56:05;25.17;;;17.80;;
19891;SDS011;10108;50.142;8.724;2023-04-21T12:58:31;27.63;;;17.25;;
19891;SDS011;10108;50.142;8.724;2023-04-21T13:00:58;28.33;;;17.38;;
19891;SDS011;10108;50.142;8.724;2023-04-21T13:03:24;26.08;;;17.83;;
19891;SDS011;10108;50.142;8.724;2023-04-21T13:05:50;24.50;;;17.42;;
19891;SDS011;10108;50.142;8.724;2023-04-21T13:08:16;25.55;;;17.83;;
19891;SDS011;10108;50.142;8.724;2023-04-21T13:10:43;24.65;;;16.65;;
19891;SDS011;10108;50.142;8.724;2023-04-21T13:13:10;25.05;;;17.65;;
19891;SDS011;10108;50.142;8.724;2023-04-21T13:15:36;25.73;;;16.33;;
19891;SDS011;10108;50.142;8.724;2023-04-21T13:18:02;22.33;;;15.50;;
19891;SDS011;10108;50.142;8.724;2023-04-21T13:20:29;23.17;;;16.10;;
19891;SDS011;10108;50.142;8.724;2023-04-21T13:22:56;21.67;;;16.23;;
19891;SDS011;10108;50.142;8.724;2023-04-21T13:25:22;22.55;;;15.77;;
19891;SDS011;10108;50.142;8.724;2023-04-21T13:27:48;21.48;;;15.52;;
19891;SDS011;10108;50.142;8.724;2023-04-21T13:30:14;23.55;;;16.08;;
19891;SDS011;10108;50.142;8.724;2023-04-21T13:32:41;23.92;;;15.30;;
19891;SDS011;10108;50.142;8.724;2023-04-21T13:35:07;20.58;;;13.93;;
19891;SDS011;10108;50.142;8.724;2023-04-21T13:37:38;20.05;;;13.73;;
19891;SDS011;10108;50.142;8.724;2023-04-21T13:40:05;24.77;;;15.57;;
19891;SDS011;10108;50.142;8.724;2023-04-21T13:42:34;22.55;;;15.48;;
19891;SDS011;10108;50.142;8.724;2023-04-21T13:45:00;23.65;;;15.57;;
19891;SDS011;10108;50.142;8.724;2023-04-21T13:47:30;20.80;;;15.27;;
19891;SDS011;10108;50.142;8.724;2023-04-21T13:49:58;23.05;;;15.68;;
19891;SDS011;10108;50.142;8.724;2023-04-21T13:52:24;20.92;;;14.57;;
19891;SDS011;10108;50.142;8.724;2023-04-21T13:54:51;20.40;;;14.30;;
19891;SDS011;10108;50.142;8.724;2023-04-21T13:57:18;20.58;;;13.98;;
19891;SDS011;10108;50.142;8.724;2023-04-21T13:59:45;20.10;;;12.77;;
19891;SDS011;10108;50.142;8.724;2023-04-21T14:02:12;21.05;;;13.23;;
19891;SDS011;10108;50.142;8.724;2023-04-21T14:04:38;17.67;;;12.77;;
19891;SDS011;10108;50.142;8.724;2023-04-21T14:07:04;19.23;;;13.65;;
19891;SDS011;10108;50.142;8.724;2023-04-21T14:09:32;19.30;;;13.48;;
19891;SDS011;10108;50.142;8.724;2023-04-21T14:11:59;17.08;;;12.60;;
19891;SDS011;10108;50.142;8.724;2023-04-21T14:14:26;19.75;;;13.45;;
19891;SDS011;10108;50.142;8.724;2023-04-21T14:16:52;22.45;;;13.30;;
19891;SDS011;10108;50.142;8.724;2023-04-21T14:19:18;20.35;;;13.52;;
19891;SDS011;10108;50.142;8.724;2023-04-21T14:21:44;18.75;;;13.23;;
19891;SDS011;10108;50.142;8.724;2023-04-21T14:24:10;19.75;;;13.65;;
19891;SDS011;10108;50.142;8.724;2023-04-21T14:26:37;23.02;;;13.32;;
19891;SDS011;10108;50.142;8.724;2023-04-21T14:29:03;17.58;;;12.75;;
19891;SDS011;10108;50.142;8.724;2023-04-21T14:31:29;20.30;;;13.05;;
19891;SDS011;10108;50.142;8.724;2023-04-21T14:33:55;17.77;;;11.95;;
19891;SDS011;10108;50.142;8.724;2023-04-21T14:36:22;15.70;;;12.13;;
19891;SDS011;10108;50.142;8.724;2023-04-21T14:38:48;19.17;;;12.35;;